Gulledge, Arkansas
Current Conditions -  °F | °C
As of 7:15 PM on Thursday 18 Dec 2014 (Local Time) from KBQP Reporting Station
Overcast Overcast  
Wind Chill: 49°   Ceiling: 4400
Heat Index: 49°   Visibility: 10mi
Dew Point: 46°   Wind: 0mph
Humidity: 90%   Direction: NA
Pressure: 30.18"   Gusts: NA
Location:  33.1762°N, 91.7595°W
Report Text: KBQP 190115Z AUTO 00000KT 10SM OVC044 10/08 A3018 RMK AO2 T00960080
Loading
Personal Weather Stations






























Interactive Weather Map New forecast layout! Learn more

10-Day Weather Forecast

Advertisements
Track Severe Weather on mobile